Time;durP1;ratioP1;P1;durP2;ratioP2;P2;SDS_P1;SDS_P2;PMS_P1;PMS_P2;Temp;Humidity;BMP_temperature;BMP_pressure;BME280_temperature;BME280_humidity;BME280_pressure;Samples;Min_cycle;Max_cycle;Signal;HPM_P1;HPM_P2
2022/11/03 06:11:25;;;;;;;10.52;1.60;;;;;;;11.45;89.82;100801.69;5107276;27;20050;-87
2022/11/03 06:13:59;;;;;;;7.22;1.67;;;;;;;11.46;89.86;100798.75;5114531;28;20047;-86
2022/11/03 06:19:39;;;;;;;9.30;2.50;;;;;;;11.38;90.39;100791.72;5114593;28;20105;-87
2022/11/03 06:22:25;;;;;;;12.70;2.03;;;;;;;11.45;90.05;100793.53;5114089;28;20042;-86
2022/11/03 06:24:54;;;;;;;11.07;1.77;;;;;;;11.52;90.30;100794.31;5096108;28;20036;-87
2022/11/03 06:27:28;;;;;;;9.25;1.90;;;;;;;11.49;90.32;100787.44;5096001;28;20112;-86
2022/11/03 06:30:12;;;;;;;9.07;2.20;;;;;;;11.48;90.27;100787.66;5096124;28;20091;-85
2022/11/03 06:32:38;;;;;;;17.73;2.00;;;;;;;11.50;90.24;100780.09;5096234;28;20130;-86
2022/11/03 06:35:08;;;;;;;10.63;1.67;;;;;;;11.50;90.47;100789.13;5096078;28;20438;-86
2022/11/03 06:37:36;;;;;;;8.37;1.73;;;;;;;11.55;90.15;100786.53;5079596;28;20035;-85
2022/11/03 06:40:24;;;;;;;11.73;1.73;;;;;;;11.52;89.89;100772.59;5095708;28;20074;-86
2022/11/03 06:42:55;;;;;;;11.30;1.70;;;;;;;11.55;90.28;100780.28;5095386;28;20063;-86
2022/11/03 06:45:28;;;;;;;15.90;2.25;;;;;;;11.50;90.26;100772.81;5095385;28;20044;-86
2022/11/03 06:47:57;;;;;;;14.25;1.83;;;;;;;11.54;89.97;100770.47;5095964;28;20036;-86
2022/11/03 06:50:31;;;;;;;7.90;1.87;;;;;;;11.52;89.88;100772.59;5113560;28;20074;-86
2022/11/03 06:53:03;;;;;;;12.18;2.33;;;;;;;11.57;90.12;100772.72;5095497;28;20042;-86
2022/11/03 06:55:37;;;;;;;12.70;1.92;;;;;;;11.49;90.03;100765.72;5095208;28;20047;-86
2022/11/03 06:58:21;;;;;;;9.27;1.58;;;;;;;11.57;89.72;100775.44;5095397;28;20032;-87
2022/11/03 07:00:49;;;;;;;13.40;1.85;;;;;;;11.48;90.16;100763.22;5095471;28;20031;-86
2022/11/03 07:03:36;;;;;;;8.80;1.60;;;;;;;11.56;89.97;100776.53;5095233;28;20032;-86
2022/11/03 07:06:18;;;;;;;13.38;2.60;;;;;;;11.56;89.97;100766.47;5113704;28;20075;-87
2022/11/03 07:08:48;;;;;;;12.63;1.52;;;;;;;11.50;90.09;100758.38;5095450;28;20032;-86
2022/11/03 07:11:17;;;;;;;15.27;2.30;;;;;;;11.62;89.69;100762.03;5113134;28;20122;-86
2022/11/03 07:13:45;;;;;;;10.00;1.73;;;;;;;11.64;89.35;100759.91;5094794;28;20052;-86
2022/11/03 07:16:17;;;;;;;11.20;1.90;;;;;;;11.66;89.12;100746.09;5113042;28;20484;-86
2022/11/03 07:18:44;;;;;;;9.60;1.98;;;;;;;11.69;88.66;100746.50;5096075;28;20043;-86
2022/11/03 07:21:51;;;;;;;8.40;1.63;;;;;;;11.70;88.22;100744.59;5113581;28;20063;-87
2022/11/03 07:24:22;;;;;;;15.52;2.20;;;;;;;11.80;88.34;100758.50;5046794;28;20412;-86
2022/11/03 07:26:55;;;;;;;13.30;2.00;;;;;;;11.81;87.95;100737.56;5113291;28;20040;-86
2022/11/03 07:29:28;;;;;;;10.40;1.60;;;;;;;11.74;88.03;100727.63;5098151;28;20138;-86
2022/11/03 07:32:04;;;;;;;11.27;1.80;;;;;;;11.78;87.77;100736.16;5099429;28;20048;-85
2022/11/03 07:34:34;;;;;;;8.68;1.88;;;;;;;11.79;87.20;100713.34;5099805;28;20039;-86
2022/11/03 07:37:03;;;;;;;11.82;1.50;;;;;;;11.91;87.14;100729.72;5082165;28;20184;-86
2022/11/03 07:39:36;;;;;;;8.45;1.40;;;;;;;11.90;86.68;100712.59;5082287;28;20084;-86
2022/11/03 07:42:14;;;;;;;11.33;1.70;;;;;;;11.92;86.45;100715.91;5098853;28;20035;-86
2022/11/03 07:44:39;;;;;;;10.80;2.28;;;;;;;11.93;86.31;100722.22;5099563;28;20031;-87
2022/11/03 07:47:31;;;;;;;14.97;2.20;;;;;;;12.02;86.46;100739.88;5098617;28;20047;-87
2022/11/03 07:49:56;;;;;;;11.60;2.08;;;;;;;12.01;85.57;100731.94;5098930;28;20042;-86
2022/11/03 07:52:24;;;;;;;8.90;2.00;;;;;;;12.03;85.61;100724.38;5117029;28;20142;-87
2022/11/03 07:54:55;;;;;;;8.20;1.60;;;;;;;12.04;85.46;100740.47;5116512;28;20039;-86
2022/11/03 07:57:29;;;;;;;15.90;1.98;;;;;;;12.09;85.30;100739.78;5116825;28;20040;-86
2022/11/03 08:00:00;;;;;;;9.88;1.80;;;;;;;12.11;85.03;100737.69;5116446;28;20043;-86
2022/11/03 08:02:40;;;;;;;11.25;1.92;;;;;;;12.28;84.92;100757.75;5098751;28;20046;-87
2022/11/03 08:05:08;;;;;;;12.20;2.00;;;;;;;12.20;84.39;100732.75;5098210;28;20077;-86
2022/11/03 08:07:36;;;;;;;11.32;2.10;;;;;;;12.24;84.27;100726.63;5098684;28;20391;-86
2022/11/03 08:10:02;;;;;;;11.40;2.35;;;;;;;12.22;83.94;100708.88;5097961;28;20126;-86
2022/11/03 08:12:31;;;;;;;11.90;2.00;;;;;;;12.24;83.86;100707.59;5116740;28;20494;-86
2022/11/03 08:14:59;;;;;;;11.38;1.80;;;;;;;12.34;83.61;100717.09;5098168;28;20089;-87
2022/11/03 08:17:30;;;;;;;15.90;2.10;;;;;;;12.37;83.99;100714.75;5081404;28;20043;-87
2022/11/03 08:19:56;;;;;;;21.60;2.17;;;;;;;12.34;83.46;100693.44;5098189;28;20059;-86
2022/11/03 08:22:24;;;;;;;34.35;2.67;;;;;;;12.42;83.46;100686.84;5116086;28;20093;-86
2022/11/03 08:24:50;;;;;;;20.90;2.00;;;;;;;12.41;82.96;100674.28;5116285;28;20044;-87
2022/11/03 08:27:15;;;;;;;11.80;1.80;;;;;;;12.48;82.54;100672.31;5097778;28;20490;-86
2022/11/03 08:29:41;;;;;;;8.53;1.70;;;;;;;12.48;82.54;100661.41;5097902;28;20096;-86
2022/11/03 08:32:11;;;;;;;10.73;1.90;;;;;;;12.51;82.40;100666.41;5097652;28;20032;-86
2022/11/03 08:34:39;;;;;;;8.83;1.30;;;;;;;12.58;82.12;100669.03;5098437;28;20032;-87
2022/11/03 08:37:07;;;;;;;10.45;1.60;;;;;;;12.59;82.13;100648.88;5097700;28;20036;-87
2022/11/03 08:39:38;;;;;;;7.47;1.65;;;;;;;12.62;81.92;100642.97;5096451;28;20036;-87
2022/11/03 08:42:03;;;;;;;10.88;1.88;;;;;;;12.71;81.14;100630.72;5080989;28;20377;-87
2022/11/03 08:44:31;;;;;;;8.63;1.40;;;;;;;12.73;81.23;100612.22;5080795;28;20116;-86
2022/11/03 08:46:56;;;;;;;11.95;1.63;;;;;;;12.81;80.62;100600.16;5115636;28;20039;-86
2022/11/03 08:49:29;;;;;;;8.80;1.87;;;;;;;12.89;80.38;100596.25;5097646;28;20043;-87
2022/11/03 08:51:57;;;;;;;12.13;1.88;;;;;;;12.95;79.93;100601.59;5097434;28;20114;-86
2022/11/03 08:54:25;;;;;;;12.35;1.92;;;;;;;13.05;79.05;100587.38;5097155;28;20043;-86
2022/11/03 08:56:56;;;;;;;13.07;1.90;;;;;;;13.18;78.98;100599.91;5097032;28;20043;-86
2022/11/03 08:59:21;;;;;;;7.43;1.30;;;;;;;13.21;78.40;100588.53;5115543;28;20052;-87
2022/11/03 09:01:49;;;;;;;8.80;1.60;;;;;;;13.33;77.39;100581.19;5096892;28;20416;-86
2022/11/03 09:04:17;;;;;;;8.73;1.33;;;;;;;13.39;77.36;100578.56;5097424;28;20046;-86
2022/11/03 09:06:45;;;;;;;8.38;1.40;;;;;;;13.43;76.67;100561.50;5116001;28;20035;-86
2022/11/03 09:09:11;;;;;;;10.13;1.75;;;;;;;13.53;76.23;100560.06;5096619;28;20043;-86
2022/11/03 09:11:46;;;;;;;8.97;1.53;;;;;;;13.57;76.00;100558.50;5096973;28;20035;-87
2022/11/03 09:14:13;;;;;;;8.45;1.42;;;;;;;13.64;75.99;100553.72;5097846;28;20123;-87
2022/11/03 09:16:38;;;;;;;12.38;1.70;;;;;;;13.64;75.08;100551.00;5115012;28;20035;-87
2022/11/03 09:19:04;;;;;;;5.20;1.53;;;;;;;13.72;74.82;100538.91;5080219;28;20057;-86
2022/11/03 09:21:34;;;;;;;10.48;1.40;;;;;;;13.68;74.58;100517.59;5114806;28;20039;-86
2022/11/03 09:23:59;;;;;;;6.07;2.03;;;;;;;13.79;74.35;100509.56;5080632;28;20039;-86
2022/11/03 09:26:28;;;;;;;8.88;1.52;;;;;;;13.80;74.42;100490.25;5096705;28;20096;-87
2022/11/03 09:28:55;;;;;;;6.50;1.30;;;;;;;13.87;73.25;100495.53;5096630;28;20043;-87
2022/11/03 09:31:27;;;;;;;8.93;1.63;;;;;;;13.89;73.99;100501.56;5115313;28;20039;-87
2022/11/03 09:33:52;;;;;;;6.70;1.38;;;;;;;13.90;73.33;100481.41;5097133;28;20097;-87
2022/11/03 09:36:18;;;;;;;6.75;1.20;;;;;;;13.97;73.20;100478.53;5114475;28;20032;-86
2022/11/03 09:38:52;;;;;;;7.87;1.60;;;;;;;13.98;72.38;100472.00;5114509;28;20403;-86
2022/11/03 09:41:32;;;;;;;9.57;1.60;;;;;;;13.97;72.37;100454.81;5052627;28;20051;-86
2022/11/03 09:47:39;;;;;;;6.63;1.33;;;;;;;14.01;72.63;100457.84;5052014;28;20099;-86
2022/11/03 09:56:31;;;;;;;10.18;1.38;;;;;;;13.87;72.42;100443.72;5051783;28;20075;-87
2022/11/03 09:59:01;;;;;;;9.25;1.40;;;;;;;13.83;72.62;100439.84;5051243;28;20033;-87
2022/11/03 10:01:27;;;;;;;8.07;1.77;;;;;;;13.82;72.55;100435.47;5051986;28;20076;-86
2022/11/03 10:03:58;;;;;;;10.17;1.50;;;;;;;13.79;72.76;100434.06;5018308;28;20165;-87
2022/11/03 10:06:32;;;;;;;7.55;1.35;;;;;;;13.76;73.00;100429.09;5087448;28;20046;-89
2022/11/03 10:09:00;;;;;;;8.07;2.17;;;;;;;13.75;72.71;100432.91;5096605;28;20131;-87
2022/11/03 10:11:30;;;;;;;8.85;1.60;;;;;;;13.74;72.75;100414.88;5095596;28;20036;-86
2022/11/03 10:18:28;;;;;;;5.60;1.42;;;;;;;13.83;73.28;100412.56;5071844;28;20075;-86
2022/11/03 10:21:28;;;;;;;7.03;1.45;;;;;;;13.82;73.09;100413.66;5054612;28;20053;-86
2022/11/03 11:05:19;;;;;;;6.85;1.65;;;;;;;15.47;65.74;100348.28;5097957;28;20086;-86
2022/11/03 11:19:10;;;;;;;7.05;1.40;;;;;;;15.54;65.22;100331.69;5054862;28;20071;-86
2022/11/03 11:21:38;;;;;;;5.35;1.38;;;;;;;15.60;63.81;100331.47;5038486;28;20136;-86
2022/11/03 11:24:08;;;;;;;4.85;1.45;;;;;;;15.57;63.50;100312.81;5054742;28;20559;-85
2022/11/03 11:26:34;;;;;;;7.60;1.60;;;;;;;15.66;63.38;100309.63;5054380;28;20048;-85
2022/11/03 11:32:41;;;;;;;4.63;1.10;;;;;;;16.00;62.58;100292.91;5055804;28;20102;-85
2022/11/03 11:39:01;;;;;;;7.25;1.35;;;;;;;16.14;61.95;100283.13;5059999;28;20491;-86
2022/11/03 11:45:04;;;;;;;5.63;1.20;;;;;;;15.99;62.33;100253.78;5076717;28;20454;-86
2022/11/03 11:50:51;;;;;;;4.35;1.50;;;;;;;15.83;61.92;100244.66;5076133;28;20055;-86
2022/11/03 11:53:24;;;;;;;5.93;1.43;;;;;;;15.86;61.88;100222.25;5058028;28;20045;-86
2022/11/03 11:55:58;;;;;;;10.82;1.58;;;;;;;15.95;61.83;100211.63;5075285;28;20041;-86
2022/11/03 11:58:48;;;;;;;7.25;1.23;;;;;;;15.98;61.96;100202.06;5075892;28;20042;-85
2022/11/03 12:01:35;;;;;;;6.28;1.48;;;;;;;16.08;61.86;100197.44;5058594;28;20049;-86
2022/11/03 12:07:36;;;;;;;5.70;1.42;;;;;;;16.18;60.62;100185.72;5075473;28;20119;-86
2022/11/03 12:24:38;;;;;;;5.97;1.30;;;;;;;17.04;58.34;100177.06;5073630;28;20138;-86
2022/11/03 12:27:24;;;;;;;5.75;1.60;;;;;;;17.08;58.05;100150.78;5056724;28;20092;-85
2022/11/03 12:33:23;;;;;;;3.55;1.60;;;;;;;18.47;54.05;100142.84;5013787;28;20069;-85
2022/11/03 12:35:49;;;;;;;3.53;1.10;;;;;;;18.83;51.84;100136.25;5054550;28;20037;-86
2022/11/03 12:38:15;;;;;;;6.22;1.52;;;;;;;19.22;50.91;100125.19;5056426;28;20507;-85
2022/11/03 12:40:40;;;;;;;4.97;1.17;;;;;;;19.84;48.71;100121.72;5055965;28;20037;-86
2022/11/03 12:43:06;;;;;;;4.73;1.23;;;;;;;19.86;48.55;100116.75;5056360;28;20044;-85
2022/11/03 12:45:49;;;;;;;5.37;1.53;;;;;;;19.67;49.55;100108.44;5056319;28;20028;-86
2022/11/03 12:48:15;;;;;;;3.88;1.30;;;;;;;19.80;48.12;100112.44;5055959;28;20483;-85
2022/11/03 12:50:43;;;;;;;4.93;1.30;;;;;;;19.65;47.89;100094.16;5056700;28;20559;-85
2022/11/03 12:53:14;;;;;;;5.30;1.30;;;;;;;19.35;48.67;100093.41;5073324;28;20119;-85
2022/11/03 12:59:05;;;;;;;6.18;1.50;;;;;;;18.14;51.59;100078.53;5074933;28;20128;-85
2022/11/03 13:01:48;;;;;;;4.85;1.40;;;;;;;17.81;53.36;100064.44;5073262;28;20025;-85
2022/11/03 13:04:21;;;;;;;3.90;1.30;;;;;;;17.57;53.04;100067.84;5073246;28;20041;-85
2022/11/03 13:06:47;;;;;;;4.75;1.40;;;;;;;17.41;53.54;100050.63;5056917;28;20044;-84
2022/11/03 13:09:14;;;;;;;4.23;1.20;;;;;;;17.27;54.28;100063.28;5073723;28;20040;-85
2022/11/03 13:14:34;;;;;;;6.00;1.70;;;;;;;16.71;55.97;100042.28;5075182;28;20102;-86
2022/11/03 13:52:42;;;;;;;6.97;1.25;;;;;;;14.59;65.12;100004.50;5114438;28;20089;-86
2022/11/03 13:55:09;;;;;;;6.03;1.38;;;;;;;14.48;66.89;100009.03;5079069;28;20050;-85
2022/11/03 13:57:35;;;;;;;5.97;1.30;;;;;;;14.35;67.83;99994.75;5096085;28;20118;-84
2022/11/03 14:00:03;;;;;;;6.43;1.60;;;;;;;14.28;67.96;100018.72;5079237;28;20042;-84
2022/11/03 14:02:29;;;;;;;9.13;1.33;;;;;;;14.20;70.82;100003.66;5114349;28;20038;-84
2022/11/03 14:04:54;;;;;;;6.17;1.37;;;;;;;13.66;74.00;100003.69;5096664;28;20040;-84
2022/11/03 14:07:22;;;;;;;3.80;1.40;;;;;;;13.13;78.22;100001.41;5095941;28;20044;-85
2022/11/03 14:09:52;;;;;;;5.22;1.15;;;;;;;12.82;80.88;99992.00;5096901;28;20027;-86
2022/11/03 14:15:23;;;;;;;8.70;1.60;;;;;;;12.35;83.17;99990.50;5114324;28;20062;-85
2022/11/03 14:24:38;;;;;;;5.65;2.00;;;;;;;11.74;89.95;99973.97;5096087;27;20204;-85
2022/11/03 14:27:27;;;;;;;6.22;1.42;;;;;;;11.66;89.40;99977.94;5093635;28;20066;-85
2022/11/03 14:36:02;;;;;;;7.68;1.70;;;;;;;11.44;95.19;99966.91;5050114;28;20086;-86
2022/11/03 14:38:32;;;;;;;5.95;1.60;;;;;;;11.43;95.16;99953.56;5092267;28;20047;-85
2022/11/03 14:43:54;;;;;;;5.63;1.73;;;;;;;11.30;97.63;99944.63;5092677;28;20047;-86
2022/11/03 14:46:20;;;;;;;5.80;1.70;;;;;;;11.22;98.79;99935.00;5076878;28;20044;-86
2022/11/03 14:49:01;;;;;;;;;;;;;;;;;;;;;
2022/11/03 14:51:41;;;;;;;7.20;1.70;;;;;;;11.12;99.49;99932.09;5093876;28;20035;-86
2022/11/03 14:54:07;;;;;;;7.05;1.73;;;;;;;11.15;100.00;99914.50;5075444;28;20127;-86
2022/11/03 14:56:33;;;;;;;6.83;1.90;;;;;;;11.13;100.00;99906.59;5091639;28;20443;-86
2022/11/03 14:59:00;;;;;;;4.85;1.80;;;;;;;11.17;100.00;99915.06;5091887;28;20032;-87
2022/11/03 15:01:26;;;;;;;6.77;1.87;;;;;;;11.15;100.00;99909.88;5093446;28;20093;-87
2022/11/03 15:03:57;;;;;;;4.50;1.70;;;;;;;11.10;100.00;99898.09;5092782;28;20044;-86
2022/11/03 15:06:26;;;;;;;6.82;2.10;;;;;;;11.10;100.00;99889.94;5092825;28;20068;-86
2022/11/03 15:08:53;;;;;;;8.00;2.05;;;;;;;11.16;100.00;99895.25;5093497;28;20040;-86
2022/11/03 15:11:19;;;;;;;4.78;2.15;;;;;;;11.19;100.00;99900.19;5093345;28;20040;-86
2022/11/03 15:13:49;;;;;;;5.53;2.10;;;;;;;11.17;100.00;99888.72;5091992;28;20036;-86
2022/11/03 15:16:24;;;;;;;7.13;1.90;;;;;;;11.24;100.00;99897.56;5093103;28;20144;-86
2022/11/03 15:18:49;;;;;;;8.60;2.07;;;;;;;11.23;100.00;99893.22;5093412;28;20036;-85
2022/11/03 15:21:17;;;;;;;5.15;2.08;;;;;;;11.25;100.00;99871.25;5092874;28;20063;-86
2022/11/03 15:23:43;;;;;;;7.47;2.03;;;;;;;11.34;100.00;99872.50;5091732;28;20539;-87
2022/11/03 15:26:11;;;;;;;10.80;2.50;;;;;;;11.37;100.00;99869.28;5092243;28;20044;-85
2022/11/03 15:28:37;;;;;;;7.13;2.10;;;;;;;11.35;100.00;99863.28;5093221;28;20040;-86
2022/11/03 15:31:10;;;;;;;9.13;2.30;;;;;;;11.32;100.00;99863.75;5075548;28;20044;-86
2022/11/03 15:33:36;;;;;;;6.67;2.00;;;;;;;11.36;100.00;99870.34;5092581;28;20606;-86
2022/11/03 15:36:03;;;;;;;5.13;2.30;;;;;;;11.31;100.00;99870.25;5091779;28;20040;-86
2022/11/03 15:38:34;;;;;;;7.13;2.20;;;;;;;11.26;100.00;99842.19;5092488;28;20036;-86
2022/11/03 15:41:18;;;;;;;6.07;2.30;;;;;;;11.29;100.00;99847.94;5091987;28;20471;-86
2022/11/03 15:43:48;;;;;;;5.13;2.15;;;;;;;11.32;100.00;99824.91;5091060;28;20076;-86
2022/11/03 15:46:19;;;;;;;5.97;2.03;;;;;;;11.37;100.00;99823.09;5108834;28;20478;-86
2022/11/03 15:49:00;;;;;;;5.60;2.08;;;;;;;11.36;100.00;99813.31;5093177;28;20032;-86
2022/11/03 15:51:26;;;;;;;7.15;2.20;;;;;;;11.39;100.00;99803.84;5079334;28;20468;-86
2022/11/03 15:54:01;;;;;;;9.93;2.10;;;;;;;11.45;100.00;99807.47;5095379;28;20086;-87
2022/11/03 15:56:29;;;;;;;9.00;1.90;;;;;;;11.38;100.00;99794.91;5096872;28;20490;-86
2022/11/03 15:58:57;;;;;;;6.90;2.00;;;;;;;11.44;100.00;99803.94;5096239;28;20377;-86
2022/11/03 16:01:25;;;;;;;5.37;2.03;;;;;;;11.37;100.00;99781.56;5077793;28;20114;-87
2022/11/03 16:03:55;;;;;;;5.80;1.90;;;;;;;11.37;100.00;99787.81;5096246;28;20499;-87
2022/11/03 16:06:28;;;;;;;6.57;2.20;;;;;;;11.35;100.00;99789.13;5095061;28;20564;-86
2022/11/03 16:08:56;;;;;;;6.85;1.90;;;;;;;11.39;100.00;99793.00;5094731;28;20587;-87
2022/11/03 16:11:24;;;;;;;8.77;2.38;;;;;;;11.32;100.00;99782.28;5095288;28;20036;-86
2022/11/03 16:13:52;;;;;;;12.90;2.50;;;;;;;11.36;100.00;99797.00;5078332;28;20044;-87
2022/11/03 16:16:27;;;;;;;5.22;2.33;;;;;;;11.24;100.00;99794.38;5094451;28;20043;-87
2022/11/03 16:18:57;;;;;;;6.40;2.55;;;;;;;11.26;100.00;99788.69;5096657;28;20456;-86
2022/11/03 16:21:23;;;;;;;7.82;2.58;;;;;;;11.17;100.00;99776.59;5094695;28;20047;-86
2022/11/03 16:23:51;;;;;;;11.45;2.95;;;;;;;11.14;100.00;99780.63;5094039;28;20044;-87
2022/11/03 16:26:20;;;;;;;4.53;2.33;;;;;;;11.14;100.00;99790.66;5094753;28;20040;-87
2022/11/03 16:28:51;;;;;;;7.13;2.08;;;;;;;11.06;100.00;99781.03;5094628;28;20050;-86
2022/11/03 16:31:17;;;;;;;7.15;2.50;;;;;;;11.09;100.00;99785.13;5094461;28;20130;-87
2022/11/03 16:33:50;;;;;;;5.83;2.60;;;;;;;11.04;100.00;99773.16;5095385;28;20079;-87
2022/11/03 16:36:18;;;;;;;5.22;2.60;;;;;;;11.02;100.00;99777.16;5094488;28;20122;-88
2022/11/03 16:39:11;;;;;;;8.73;3.10;;;;;;;10.98;100.00;99787.66;5094722;28;20476;-88
2022/11/03 16:41:53;;;;;;;10.63;3.25;;;;;;;10.97;100.00;99779.78;5093591;28;20107;-87
2022/11/03 16:44:19;;;;;;;7.60;2.90;;;;;;;10.94;100.00;99772.97;5094998;28;20036;-87
2022/11/03 16:46:49;;;;;;;8.50;3.30;;;;;;;10.96;100.00;99789.00;5094896;28;20043;-87
2022/11/03 16:49:28;;;;;;;;;;;;;;;;;;;;;
2022/11/03 16:52:04;;;;;;;;;;;;;;;;;;;;;
2022/11/03 16:54:35;;;;;;;13.00;3.63;;;;;;;10.84;100.00;99779.03;5096334;28;20375;-88
2022/11/03 16:57:08;;;;;;;8.93;2.92;;;;;;;10.79;100.00;99770.78;5077671;28;20063;-88
2022/11/03 16:59:41;;;;;;;8.90;3.38;;;;;;;10.76;100.00;99763.13;5095813;28;20040;-89
2022/11/03 17:02:17;;;;;;;;;;;;;;;;;;;;;
2022/11/03 17:05:14;;;;;;;12.00;3.60;;;;;;;10.79;100.00;99783.53;5095638;28;20040;-91
2022/11/03 17:07:49;;;;;;;8.80;3.60;;;;;;;10.72;100.00;99767.41;5080412;28;20048;-89
2022/11/03 17:13:10;;;;;;;8.63;3.15;;;;;;;10.70;100.00;99767.66;5096013;28;20438;-89
2022/11/03 17:15:43;;;;;;;7.45;3.72;;;;;;;10.69;100.00;99766.00;5094209;28;20109;-89
2022/11/03 17:18:24;;;;;;;6.78;3.42;;;;;;;10.69;100.00;99770.59;5095129;28;20508;-89
2022/11/03 17:20:54;;;;;;;5.93;3.33;;;;;;;10.62;100.00;99754.47;5093976;28;20487;-89
2022/11/03 17:23:50;;;;;;;9.07;3.70;;;;;;;10.63;100.00;99761.53;5091511;28;20063;-89
2022/11/03 17:26:28;;;;;;;9.45;3.78;;;;;;;10.66;100.00;99757.53;5076376;28;20044;-89
2022/11/03 17:29:19;;;;;;;11.02;3.90;;;;;;;10.60;100.00;99747.63;5076934;28;20051;-89
2022/11/03 17:32:14;;;;;;;;;;;;;;;;;;;;;
2022/11/03 17:35:11;;;;;;;;;;;;;;;;;;;;;
2022/11/03 17:37:50;;;;;;;9.52;4.15;;;;;;;10.61;100.00;99736.53;5086992;28;20434;-89
2022/11/03 17:40:43;;;;;;;11.75;3.67;;;;;;;10.53;100.00;99726.09;5077207;28;20051;-89
2022/11/03 17:43:45;;;;;;;9.18;3.95;;;;;;;10.47;100.00;99719.75;5076206;28;20040;-89
2022/11/03 17:46:19;;;;;;;8.23;3.88;;;;;;;10.44;100.00;99722.94;5071234;28;20109;-88
2022/11/03 17:48:54;;;;;;;10.77;3.93;;;;;;;10.49;100.00;99743.91;5076846;28;20047;-89
2022/11/03 17:51:24;;;;;;;9.48;4.30;;;;;;;10.45;100.00;99726.47;5076689;28;20122;-89
2022/11/03 17:54:02;;;;;;;9.55;4.60;;;;;;;10.48;100.00;99723.25;5059949;28;20036;-89
2022/11/03 17:56:36;;;;;;;12.00;4.57;;;;;;;10.46;100.00;99731.66;5076615;28;20436;-89
2022/11/03 17:59:07;;;;;;;8.48;4.20;;;;;;;10.50;100.00;99734.72;5076964;28;20040;-91
2022/11/03 18:01:32;;;;;;;12.37;4.93;;;;;;;10.48;100.00;99723.25;5076915;28;20036;-89
2022/11/03 18:04:11;;;;;;;9.35;4.65;;;;;;;10.46;100.00;99726.22;5094246;28;20040;-89
2022/11/03 18:06:44;;;;;;;8.48;4.45;;;;;;;10.44;100.00;99732.97;5075783;28;20038;-89
2022/11/03 18:09:12;;;;;;;11.17;4.07;;;;;;;10.47;100.00;99735.19;5059232;28;20036;-89
2022/11/03 18:14:28;;;;;;;8.95;4.68;;;;;;;10.49;100.00;99733.06;5096228;28;20054;-89
2022/11/03 18:16:54;;;;;;;8.15;4.55;;;;;;;10.51;100.00;99739.06;5059470;28;20044;-90
2022/11/03 18:19:27;;;;;;;12.52;5.43;;;;;;;10.46;100.00;99733.53;5075975;28;20088;-89
2022/11/03 18:21:56;;;;;;;10.40;4.80;;;;;;;10.44;100.00;99733.78;5076796;28;20048;-90
2022/11/03 18:24:39;;;;;;;8.98;5.07;;;;;;;10.45;100.00;99729.19;5107789;28;20052;-90
2022/11/03 18:27:20;;;;;;;10.13;4.85;;;;;;;10.46;100.00;99728.94;5096662;28;20051;-90
2022/11/03 18:29:49;;;;;;;10.68;4.82;;;;;;;10.47;100.00;99733.31;5096043;28;20044;-89
2022/11/03 18:32:27;;;;;;;10.38;5.18;;;;;;;10.41;100.00;99733.44;5114117;28;20054;-89
2022/11/03 18:35:14;;;;;;;9.37;5.00;;;;;;;10.42;100.00;99745.94;5096057;28;20038;-89
2022/11/03 18:37:52;;;;;;;10.32;4.68;;;;;;;10.41;100.00;99726.13;5096196;28;20077;-90
2022/11/03 18:40:49;;;;;;;9.75;5.55;;;;;;;10.47;100.00;99746.03;5080183;28;20039;-90
2022/11/03 18:43:27;;;;;;;8.82;4.97;;;;;;;10.41;100.00;99745.13;5082333;28;20070;-90
2022/11/03 18:46:08;;;;;;;;;;;;;;;;;;;;;
2022/11/03 18:48:47;;;;;;;;;;;;;;;;;;;;;
2022/11/03 18:51:29;;;;;;;11.52;5.13;;;;;;;10.43;100.00;99720.47;5114214;28;20576;-89
2022/11/03 18:54:20;;;;;;;8.30;4.28;;;;;;;10.43;100.00;99725.91;5095933;28;20047;-89
2022/11/03 18:56:54;;;;;;;9.57;4.78;;;;;;;10.42;100.00;99713.38;5095862;28;20036;-89
2022/11/03 18:59:41;;;;;;;8.85;4.53;;;;;;;10.45;100.00;99721.03;5095300;28;20031;-89
2022/11/03 19:02:50;;;;;;;8.40;4.57;;;;;;;10.42;100.00;99706.06;5079834;28;20043;-90
2022/11/03 19:05:28;;;;;;;;;;;;;;;;;;;;;
2022/11/03 19:11:18;;;;;;;9.63;5.20;;;;;;;10.33;100.00;99678.56;5102324;28;20505;-91
2022/11/03 19:13:54;;;;;;;11.23;5.50;;;;;;;10.34;100.00;99691.03;5080482;28;20040;-90
2022/11/03 19:16:32;;;;;;;;;;;;;;;;;;;;;
2022/11/03 19:19:11;;;;;;;9.93;5.43;;;;;;;10.30;100.00;99676.25;5114791;28;20038;-90
2022/11/03 19:21:46;;;;;;;14.35;5.70;;;;;;;10.34;100.00;99684.78;5081003;28;20042;-90
2022/11/03 19:24:34;;;;;;;15.90;5.90;;;;;;;10.38;100.00;99696.78;5096865;28;20051;-90
2022/11/03 19:27:10;;;;;;;13.15;6.45;;;;;;;10.28;100.00;99686.53;5102327;28;20110;-90
2022/11/03 19:29:49;;;;;;;14.13;5.47;;;;;;;10.34;100.00;99685.59;5099443;28;20036;-90
2022/11/03 19:32:48;;;;;;;8.15;5.15;;;;;;;10.29;100.00;99690.06;5099391;28;20036;-90
2022/11/03 19:35:19;;;;;;;11.98;5.63;;;;;;;10.28;100.00;99683.81;5083338;28;20139;-90
2022/11/03 19:38:28;;;;;;;12.05;6.00;;;;;;;10.24;100.00;99679.13;5099572;28;20084;-90
2022/11/03 19:43:58;;;;;;;10.03;5.50;;;;;;;10.21;100.00;99676.91;5118060;28;20046;-90
2022/11/03 19:46:41;;;;;;;;;;;;;;;;;;;;;
2022/11/03 19:49:19;;;;;;;13.23;6.05;;;;;;;10.23;100.00;99672.91;5117501;28;20053;-90
2022/11/03 19:51:54;;;;;;;13.70;5.93;;;;;;;10.23;100.00;99677.47;5099405;28;20039;-90
2022/11/03 19:54:28;;;;;;;10.38;5.43;;;;;;;10.18;100.00;99676.31;5099266;28;20040;-89
2022/11/03 19:57:03;;;;;;;10.80;5.47;;;;;;;10.24;100.00;99685.38;5082376;28;20036;-89
2022/11/03 19:59:57;;;;;;;10.98;5.70;;;;;;;10.19;100.00;99680.69;5098820;28;20156;-89
2022/11/03 20:02:26;;;;;;;10.13;5.88;;;;;;;10.21;100.00;99675.00;5086578;28;20047;-90
2022/11/03 20:04:57;;;;;;;11.40;5.45;;;;;;;10.18;100.00;99657.34;5098790;28;20039;-89
2022/11/03 20:07:33;;;;;;;9.50;6.05;;;;;;;10.23;100.00;99664.78;5082013;28;20043;-89
2022/11/03 20:13:49;;;;;;;12.55;5.97;;;;;;;10.23;100.00;99681.03;5054240;28;20433;-89
2022/11/03 20:16:41;;;;;;;8.98;5.10;;;;;;;10.17;100.00;99669.25;5054332;28;20041;-90
2022/11/03 20:19:19;;;;;;;;;;;;;;;;;;;;;
2022/11/03 20:21:48;;;;;;;12.02;5.88;;;;;;;10.16;100.00;99656.78;5039979;28;20428;-89
2022/11/03 20:24:21;;;;;;;9.67;5.77;;;;;;;10.16;100.00;99645.13;5051447;28;20051;-89
2022/11/03 20:27:07;;;;;;;11.13;6.40;;;;;;;10.17;100.00;99644.03;5095650;28;20036;-89
2022/11/03 20:29:47;;;;;;;10.88;5.03;;;;;;;10.19;100.00;99647.34;5095361;28;20061;-89
2022/11/03 20:32:15;;;;;;;8.88;6.18;;;;;;;10.20;100.00;99651.66;5079988;28;20161;-90
2022/11/03 20:34:47;;;;;;;9.95;5.30;;;;;;;10.22;100.00;99654.97;5077699;28;20139;-89
2022/11/03 20:37:27;;;;;;;11.47;6.30;;;;;;;10.16;100.00;99667.59;5095178;28;20072;-89
2022/11/03 20:40:05;;;;;;;10.27;6.10;;;;;;;10.20;100.00;99670.66;5078631;28;20142;-90
2022/11/03 20:42:33;;;;;;;11.70;5.65;;;;;;;10.15;100.00;99657.00;5078610;28;20067;-89
2022/11/03 20:45:13;;;;;;;9.68;5.78;;;;;;;10.14;100.00;99660.78;5094530;28;20035;-89
2022/11/03 20:47:59;;;;;;;;;;;;;;;;;;;;;
2022/11/03 20:50:48;;;;;;;10.67;5.90;;;;;;;10.14;100.00;99675.16;5096260;28;20471;-89
2022/11/03 20:53:22;;;;;;;7.45;5.18;;;;;;;10.20;100.00;99684.19;5095805;28;20066;-89
2022/11/03 20:55:50;;;;;;;9.07;5.22;;;;;;;10.21;100.00;99691.28;5095186;28;20043;-90
2022/11/03 20:58:30;;;;;;;7.90;5.60;;;;;;;10.17;100.00;99682.81;5094575;28;20089;-90
2022/11/03 21:01:09;;;;;;;10.63;6.03;;;;;;;10.17;100.00;99688.25;5075493;28;20044;-92
2022/11/03 21:03:57;;;;;;;8.27;4.87;;;;;;;10.26;100.00;99706.81;5094680;28;20028;-90
2022/11/03 21:06:26;;;;;;;10.38;6.95;;;;;;;10.16;100.00;99716.41;5095165;28;20032;-90
2022/11/03 21:09:01;;;;;;;;;;;;;;;;;;;;;
2022/11/03 21:11:59;;;;;;;;;;;;;;;;;;;;;
2022/11/03 21:14:37;;;;;;;11.77;8.02;;;;;;;10.03;100.00;99751.09;5095015;28;20048;-91
2022/11/03 21:20:10;;;;;;;10.02;7.32;;;;;;;9.93;100.00;99778.78;5094497;28;20538;-91
2022/11/03 21:23:06;;;;;;;;;;;;;;;;;;;;;
2022/11/03 21:25:54;;;;;;;9.93;7.03;;;;;;;9.80;100.00;99794.22;5113254;28;20475;-91
2022/11/03 21:28:23;;;;;;;11.10;8.07;;;;;;;9.73;100.00;99782.69;5097635;28;20122;-91
2022/11/03 21:31:06;;;;;;;;;;;;;;;;;;;;;